Time;durP1;ratioP1;P1;durP2;ratioP2;P2;SDS_P1;SDS_P2;PMS_P1;PMS_P2;Temp;Humidity;BMP_temperature;BMP_pressure;BME280_temperature;BME280_humidity;BME280_pressure;Samples;Min_cycle;Max_cycle;Signal;HPM_P1;HPM_P2
2024/02/22 00:02:19;;;;;;;0.50;0.50;;;;;;;13.19;42.63;94365.91;6162397;23;20012;-87
2024/02/22 00:04:45;;;;;;;1.33;0.70;;;;;;;13.52;40.89;94378.69;6187286;23;20012;-88
2024/02/22 00:09:40;;;;;;;1.73;0.70;;;;;;;13.56;40.05;94366.78;6213476;23;20017;-87
2024/02/22 00:12:06;;;;;;;1.33;0.70;;;;;;;13.20;40.70;94355.25;6187675;23;20009;-88
2024/02/22 00:14:34;;;;;;;1.75;0.80;;;;;;;13.26;40.13;94358.81;6186939;23;20023;-87
2024/02/22 00:17:00;;;;;;;0.85;0.63;;;;;;;13.48;40.01;94370.50;6188126;23;20084;-87
2024/02/22 00:37:24;;;;;;;1.98;0.90;;;;;;;13.21;42.93;94349.03;6191761;22;20021;-87
2024/02/22 00:39:50;;;;;;;1.45;0.80;;;;;;;13.18;42.79;94325.94;6189547;23;20072;-86
2024/02/22 00:42:18;;;;;;;1.13;0.80;;;;;;;13.30;42.65;94331.28;6188700;23;20039;-88
2024/02/22 00:44:44;;;;;;;1.77;0.80;;;;;;;13.23;42.78;94320.06;6164257;23;20135;-87
2024/02/22 00:47:09;;;;;;;2.33;1.00;;;;;;;13.23;42.35;94323.50;6164474;23;20124;-85
2024/02/22 00:49:35;;;;;;;2.80;0.90;;;;;;;13.24;42.70;94330.28;6164494;23;20031;-86
2024/02/22 01:17:52;;;;;;;1.10;0.88;;;;;;;13.04;43.08;94241.75;6214740;22;20044;-87
2024/02/22 01:20:18;;;;;;;1.95;0.80;;;;;;;13.03;43.20;94255.00;6174510;23;19996;-88
2024/02/22 01:22:43;;;;;;;1.13;0.80;;;;;;;12.84;43.80;94246.34;6190394;23;20016;-87
2024/02/22 01:25:10;;;;;;;1.08;0.63;;;;;;;12.86;43.67;94242.50;6216594;23;20012;-87
2024/02/22 01:27:36;;;;;;;1.80;0.80;;;;;;;12.94;42.60;94251.06;6189915;23;20058;-87
2024/02/22 01:32:38;;;;;;;0.88;0.70;;;;;;;12.83;42.72;94224.69;6243813;22;20093;-86
2024/02/22 01:35:06;;;;;;;1.35;0.90;;;;;;;12.82;42.67;94224.88;6194422;23;20048;-87
2024/02/22 01:37:32;;;;;;;1.00;0.90;;;;;;;12.71;42.97;94211.53;6168924;23;20016;-87
2024/02/22 01:39:57;;;;;;;0.88;0.80;;;;;;;12.77;41.55;94202.03;6218580;23;20004;-88
2024/02/22 01:42:23;;;;;;;0.80;0.80;;;;;;;12.95;41.85;94203.09;6218801;23;20000;-88
2024/02/22 01:44:52;;;;;;;1.58;0.70;;;;;;;12.99;42.40;94197.22;6190153;22;20016;-88
2024/02/22 01:47:19;;;;;;;0.93;0.73;;;;;;;13.00;42.36;94184.94;6193867;23;20104;-87
2024/02/22 01:49:44;;;;;;;1.50;0.88;;;;;;;13.05;41.80;94192.94;6244435;23;20020;-88
2024/02/22 01:52:10;;;;;;;1.40;0.80;;;;;;;13.15;42.67;94197.63;6194682;23;20010;-87
2024/02/22 01:54:36;;;;;;;0.98;0.80;;;;;;;13.02;42.81;94195.97;6219740;23;20008;-88
2024/02/22 01:57:03;;;;;;;1.00;0.80;;;;;;;13.00;42.97;94195.38;6244557;23;20063;-87
2024/02/22 01:59:29;;;;;;;1.27;0.98;;;;;;;13.06;43.05;94204.94;6219280;23;20004;-88
2024/02/22 02:01:55;;;;;;;1.27;0.90;;;;;;;13.02;43.26;94177.69;6218442;23;20055;-88
2024/02/22 02:04:21;;;;;;;1.15;0.80;;;;;;;13.07;43.03;94176.03;6243772;23;20004;-87
2024/02/22 02:06:47;;;;;;;1.73;0.95;;;;;;;13.00;43.20;94172.69;6193570;23;20038;-88
2024/02/22 02:09:14;;;;;;;2.42;1.02;;;;;;;12.98;43.32;94172.09;6193426;23;20011;-87
2024/02/22 02:14:05;;;;;;;1.73;0.90;;;;;;;12.77;44.47;94173.34;6212243;23;20025;-87
2024/02/22 02:34:26;;;;;;;1.90;1.23;;;;;;;12.63;45.53;94148.41;6215811;22;20027;-86
2024/02/22 02:44:27;;;;;;;1.08;0.90;;;;;;;12.22;47.04;94134.13;6239415;22;20019;-87
2024/02/22 02:46:53;;;;;;;1.85;1.00;;;;;;;12.41;45.89;94129.75;6218725;23;20004;-87
2024/02/22 02:49:18;;;;;;;1.27;1.00;;;;;;;12.37;45.38;94132.00;6218568;23;20015;-87
2024/02/22 02:51:44;;;;;;;1.17;0.90;;;;;;;12.40;45.18;94134.19;6218172;23;19992;-87
2024/02/22 02:54:09;;;;;;;1.17;0.90;;;;;;;12.36;44.88;94117.38;6216813;23;20178;-88
2024/02/22 03:19:07;;;;;;;1.10;1.00;;;;;;;12.54;44.56;94108.75;6242110;22;20019;-87
2024/02/22 03:21:37;;;;;;;2.38;1.25;;;;;;;12.36;45.30;94106.94;6192853;23;20079;-87
2024/02/22 03:24:03;;;;;;;1.90;1.40;;;;;;;12.58;43.71;94090.88;6193183;23;20012;-87
2024/02/22 03:26:31;;;;;;;1.90;1.40;;;;;;;12.51;44.25;94089.13;6193413;23;20020;-87
2024/02/22 03:28:57;;;;;;;2.20;1.50;;;;;;;12.48;44.63;94083.56;6218045;23;20034;-87
2024/02/22 03:39:02;;;;;;;2.58;1.52;;;;;;;12.45;44.59;94086.59;6201877;23;20020;-87
2024/02/22 03:41:28;;;;;;;3.65;1.70;;;;;;;12.27;45.75;94061.31;6212356;23;20016;-87
2024/02/22 04:04:15;;;;;;;3.83;2.20;;;;;;;12.45;43.75;94050.88;6182748;23;20028;-87
2024/02/22 04:06:41;;;;;;;3.35;2.40;;;;;;;12.40;43.81;94069.00;6132662;23;20067;-87
2024/02/22 04:09:07;;;;;;;3.88;2.22;;;;;;;12.71;42.88;94067.25;6157795;23;20097;-86
2024/02/22 04:11:32;;;;;;;2.85;2.10;;;;;;;12.77;42.79;94062.97;6157317;23;20061;-86
2024/02/22 04:13:58;;;;;;;2.72;2.17;;;;;;;12.58;44.35;94065.56;6157176;23;20063;-87
2024/02/22 04:16:23;;;;;;;4.10;2.20;;;;;;;12.48;44.40;94060.88;6132813;23;20001;-87
2024/02/22 04:21:26;;;;;;;3.50;1.95;;;;;;;12.91;42.89;94065.19;6212528;23;20080;-86
2024/02/22 04:23:54;;;;;;;2.75;1.98;;;;;;;12.77;43.51;94074.19;6187574;23;20044;-87
2024/02/22 04:26:20;;;;;;;2.45;2.20;;;;;;;12.72;44.41;94058.41;6188072;23;20039;-87
2024/02/22 04:28:48;;;;;;;3.47;1.90;;;;;;;12.85;44.49;94066.06;6212108;23;20000;-88
2024/02/22 04:31:13;;;;;;;4.18;2.33;;;;;;;12.71;44.53;94069.84;6212675;23;20001;-87
2024/02/22 04:36:06;;;;;;;3.35;2.05;;;;;;;12.60;44.24;94060.16;6204777;23;20154;-86
2024/02/22 04:38:34;;;;;;;3.45;2.20;;;;;;;12.70;44.09;94053.41;6187160;23;20052;-88
2024/02/22 04:41:00;;;;;;;5.00;2.45;;;;;;;12.73;44.58;94035.72;6187793;23;20058;-87
2024/02/22 04:43:25;;;;;;;3.88;2.70;;;;;;;12.29;44.49;94041.03;6162584;23;20012;-87
2024/02/22 04:45:51;;;;;;;2.65;2.45;;;;;;;12.73;44.17;94038.31;6162300;23;20016;-86
2024/02/22 04:55:54;;;;;;;3.55;1.95;;;;;;;12.53;44.52;94039.38;6191402;23;20040;-87
2024/02/22 05:00:48;;;;;;;2.65;2.10;;;;;;;12.37;45.58;94037.34;6253828;22;20055;-87
2024/02/22 05:03:14;;;;;;;2.58;2.00;;;;;;;12.46;44.76;94020.38;6217348;23;20091;-87
2024/02/22 05:05:40;;;;;;;2.63;2.00;;;;;;;12.44;45.51;94023.19;6192627;23;20011;-87
2024/02/22 05:20:54;;;;;;;3.67;2.00;;;;;;;12.63;46.50;94021.38;6190536;22;20021;-86
2024/02/22 05:23:20;;;;;;;2.58;2.20;;;;;;;12.58;46.94;94012.63;6164273;23;20019;-87
2024/02/22 05:37:29;;;;;;;3.17;2.45;;;;;;;12.22;49.37;93988.16;6214687;23;20103;-87
2024/02/22 05:44:59;;;;;;;5.95;3.00;;;;;;;11.93;51.83;93985.25;6244052;22;20026;-86
2024/02/22 05:49:50;;;;;;;3.88;2.97;;;;;;;11.96;52.20;93984.81;6217217;23;20016;-87
2024/02/22 05:52:15;;;;;;;4.07;3.15;;;;;;;11.70;53.53;93976.22;6218893;23;20019;-86
2024/02/22 05:57:10;;;;;;;5.43;3.10;;;;;;;10.99;54.67;93974.78;6212183;23;20024;-87
2024/02/22 05:59:35;;;;;;;4.85;3.30;;;;;;;11.06;54.86;93966.91;6187956;23;20019;-86
2024/02/22 06:04:26;;;;;;;4.87;3.67;;;;;;;11.32;54.41;93948.50;6244598;22;20035;-87
2024/02/22 06:06:55;;;;;;;6.88;3.67;;;;;;;11.35;54.55;93958.50;6219202;23;20241;-87
2024/02/22 06:09:20;;;;;;;4.70;3.45;;;;;;;11.62;53.70;93965.28;6219647;23;20019;-87
2024/02/22 06:11:45;;;;;;;6.00;3.97;;;;;;;11.58;54.63;93966.72;6218938;23;20011;-87
2024/02/22 06:14:11;;;;;;;6.38;4.15;;;;;;;11.59;55.18;93945.66;6219001;23;20018;-88
2024/02/22 06:19:02;;;;;;;7.07;4.07;;;;;;;11.69;54.87;93963.41;6244452;22;20024;-87
2024/02/22 06:21:27;;;;;;;6.95;4.40;;;;;;;11.62;55.49;93966.06;6219177;23;20016;-86
2024/02/22 06:23:56;;;;;;;7.28;4.20;;;;;;;11.76;55.47;93973.78;6244077;23;20058;-87
2024/02/22 06:28:47;;;;;;;6.65;3.95;;;;;;;11.57;55.74;93967.72;6240525;22;20066;-87
2024/02/22 06:31:13;;;;;;;6.85;4.32;;;;;;;11.57;56.05;93971.13;6218852;23;20008;-87
2024/02/22 06:33:39;;;;;;;6.18;4.22;;;;;;;11.64;56.46;93971.88;6168288;23;20008;-86
2024/02/22 06:36:05;;;;;;;5.45;4.00;;;;;;;11.71;56.09;93969.22;6239933;22;20016;-87
2024/02/22 06:38:30;;;;;;;7.65;4.50;;;;;;;11.65;55.99;93972.66;6214994;23;20011;-87
2024/02/22 06:40:56;;;;;;;6.97;4.32;;;;;;;11.68;56.19;93974.84;6193536;23;20008;-87
2024/02/22 06:43:26;;;;;;;5.78;4.40;;;;;;;11.54;57.32;93972.34;6218597;23;20061;-86
2024/02/22 06:45:51;;;;;;;4.53;3.97;;;;;;;11.50;57.21;93979.00;6219428;23;20035;-87
2024/02/22 06:50:42;;;;;;;6.40;4.35;;;;;;;11.43;57.73;93983.47;6244079;22;20020;-86
2024/02/22 06:53:10;;;;;;;6.57;4.30;;;;;;;11.56;57.30;93974.75;6193377;23;20012;-87
2024/02/22 06:55:35;;;;;;;6.80;4.38;;;;;;;11.45;57.05;93952.00;6193143;23;20023;-87
2024/02/22 06:58:03;;;;;;;6.68;4.07;;;;;;;11.31;58.07;93957.34;6213286;23;20035;-88
2024/02/22 07:00:28;;;;;;;5.80;3.90;;;;;;;11.32;58.44;93937.28;6169362;23;20087;-87
2024/02/22 07:02:54;;;;;;;6.22;4.03;;;;;;;11.37;57.92;93928.88;6193195;23;20012;-87
2024/02/22 07:05:20;;;;;;;6.00;4.00;;;;;;;11.14;58.61;93919.84;6218451;23;20008;-88
2024/02/22 07:07:46;;;;;;;5.13;4.45;;;;;;;11.00;59.35;93929.53;6218261;23;20073;-87
2024/02/22 07:12:38;;;;;;;7.65;4.72;;;;;;;10.99;59.46;93924.56;6242494;22;20031;-87
2024/02/22 07:15:04;;;;;;;7.00;5.40;;;;;;;11.33;58.74;93918.88;6218846;23;20012;-87
2024/02/22 07:17:29;;;;;;;9.15;5.43;;;;;;;11.09;58.85;93910.06;6193221;23;20012;-88
2024/02/22 07:19:55;;;;;;;7.95;5.15;;;;;;;11.07;59.04;93921.69;6193057;23;20012;-87
2024/02/22 07:30:07;;;;;;;8.10;5.18;;;;;;;10.93;60.23;93895.00;6213761;23;20029;-87
2024/02/22 07:32:33;;;;;;;10.20;5.50;;;;;;;11.13;59.60;93898.19;6163451;23;20004;-87
2024/02/22 07:35:00;;;;;;;7.35;5.22;;;;;;;11.20;59.30;93887.75;6187325;23;20087;-87
2024/02/22 07:37:25;;;;;;;7.93;5.38;;;;;;;10.93;60.84;93890.56;6139814;23;20019;-87
2024/02/22 07:39:53;;;;;;;7.85;5.45;;;;;;;10.91;60.95;93881.41;6163256;23;20024;-88
2024/02/22 07:42:19;;;;;;;10.38;5.70;;;;;;;10.93;61.04;93887.97;6188118;23;20020;-87
2024/02/22 07:44:44;;;;;;;8.75;5.57;;;;;;;10.85;60.86;93896.03;6213159;23;20008;-87
2024/02/22 07:47:11;;;;;;;8.15;5.68;;;;;;;10.70;61.48;93883.34;6163367;23;20008;-88
2024/02/22 07:49:38;;;;;;;7.78;5.57;;;;;;;11.02;60.95;93898.09;6212482;23;20015;-87
2024/02/22 07:52:06;;;;;;;8.50;5.90;;;;;;;11.14;60.60;93886.00;6162724;23;20008;-87
2024/02/22 07:54:31;;;;;;;8.02;5.93;;;;;;;11.21;60.51;93889.31;6164117;23;20032;-87
2024/02/22 08:01:57;;;;;;;9.40;6.50;;;;;;;11.20;61.01;93894.78;6183338;23;20029;-87
2024/02/22 08:04:26;;;;;;;9.80;6.20;;;;;;;11.32;59.71;93890.44;6108958;23;20016;-86
2024/02/22 08:06:51;;;;;;;6.38;4.70;;;;;;;11.28;58.04;93877.06;6133976;23;20096;-86
2024/02/22 08:09:17;;;;;;;7.80;4.72;;;;;;;11.40;58.22;93879.75;6133909;23;20068;-86
2024/02/22 08:11:42;;;;;;;6.72;4.90;;;;;;;11.50;58.16;93881.88;6133495;23;20013;-87
2024/02/22 08:14:08;;;;;;;7.07;5.03;;;;;;;11.25;58.72;93861.88;6133729;23;20009;-86
2024/02/22 08:16:33;;;;;;;7.35;4.95;;;;;;;11.37;58.45;93867.19;6210786;23;20020;-86
2024/02/22 08:18:59;;;;;;;9.35;5.65;;;;;;;11.54;58.76;93857.78;6138715;23;20012;-87
2024/02/22 08:21:27;;;;;;;7.38;5.43;;;;;;;11.55;58.34;93861.97;6163051;23;20008;-86
2024/02/22 08:23:55;;;;;;;7.32;4.63;;;;;;;11.38;57.69;93852.34;6187544;23;20139;-87
2024/02/22 08:26:22;;;;;;;5.82;4.55;;;;;;;11.51;57.14;93862.63;6139711;23;20029;-86
2024/02/22 08:31:13;;;;;;;6.65;4.95;;;;;;;11.53;57.53;93852.78;6186529;23;20020;-87
2024/02/22 08:33:39;;;;;;;8.23;5.75;;;;;;;11.47;59.40;93859.66;6166084;23;20005;-87
2024/02/22 08:36:07;;;;;;;9.18;5.43;;;;;;;11.46;59.24;93850.28;6193331;23;20005;-86
2024/02/22 08:38:33;;;;;;;8.05;5.50;;;;;;;11.42;58.78;93837.88;6190030;23;20013;-86
2024/02/22 08:40:58;;;;;;;7.78;5.10;;;;;;;11.59;58.35;93843.31;6166265;23;20028;-87
2024/02/22 08:43:24;;;;;;;7.80;5.00;;;;;;;11.46;59.22;93846.84;6162999;23;20005;-87
2024/02/22 08:45:51;;;;;;;8.82;5.65;;;;;;;11.47;58.57;93836.22;6198579;23;20016;-86
2024/02/22 08:48:16;;;;;;;8.55;5.50;;;;;;;11.67;58.51;93832.59;6187315;23;20012;-86
2024/02/22 08:50:42;;;;;;;9.85;5.32;;;;;;;11.65;58.29;93813.78;6187125;23;20005;-87
2024/02/22 08:53:07;;;;;;;8.93;5.63;;;;;;;11.87;58.08;93804.50;6188114;23;20005;-87
2024/02/22 08:55:35;;;;;;;8.27;5.82;;;;;;;11.87;58.02;93806.31;6189573;23;20131;-87
2024/02/22 08:58:01;;;;;;;8.57;5.90;;;;;;;12.00;57.37;93823.63;6164945;23;20012;-86
2024/02/22 09:00:26;;;;;;;10.13;5.97;;;;;;;11.80;58.59;93819.41;6187895;23;20029;-87
2024/02/22 09:02:52;;;;;;;8.88;6.32;;;;;;;11.77;58.63;93804.25;6164483;23;20005;-86
2024/02/22 09:05:19;;;;;;;8.77;5.53;;;;;;;11.92;57.67;93822.91;6164872;23;20012;-87
2024/02/22 09:07:44;;;;;;;9.05;6.13;;;;;;;11.80;58.37;93826.44;6165090;23;20092;-86
2024/02/22 09:10:10;;;;;;;11.93;7.10;;;;;;;11.73;59.36;93824.72;6189224;23;20025;-87
2024/02/22 09:15:04;;;;;;;8.40;6.05;;;;;;;12.05;58.29;93813.31;6211715;23;20075;-88
2024/02/22 09:17:29;;;;;;;9.30;6.05;;;;;;;12.00;58.01;93814.00;6189405;23;20062;-87
2024/02/22 09:19:57;;;;;;;8.27;5.80;;;;;;;12.14;57.71;93809.41;6140356;23;20013;-87
2024/02/22 09:22:23;;;;;;;11.55;6.45;;;;;;;12.19;58.22;93806.13;6164202;23;20012;-86
2024/02/22 09:24:49;;;;;;;8.45;5.93;;;;;;;12.20;58.25;93805.91;6163925;23;20019;-86
2024/02/22 09:27:15;;;;;;;7.80;5.20;;;;;;;12.17;58.00;93792.53;6189413;23;20012;-86
2024/02/22 09:29:44;;;;;;;8.18;5.18;;;;;;;12.32;57.27;93798.13;6140046;23;20016;-87
2024/02/22 09:32:10;;;;;;;9.63;5.65;;;;;;;12.25;57.64;93797.44;6164574;23;20027;-87
2024/02/22 09:34:38;;;;;;;7.32;5.38;;;;;;;12.29;58.04;93790.75;6171611;23;20017;-86
2024/02/22 09:37:07;;;;;;;8.63;5.80;;;;;;;12.28;58.57;93800.38;6244701;23;20008;-86
2024/02/22 09:39:33;;;;;;;7.30;5.53;;;;;;;12.26;57.98;93780.75;6218818;23;20012;-87
2024/02/22 09:41:59;;;;;;;8.50;5.60;;;;;;;12.39;58.49;93790.97;6219074;23;20111;-86
2024/02/22 09:44:26;;;;;;;10.70;5.90;;;;;;;12.49;58.20;93791.25;6244154;23;20000;-86
2024/02/22 09:46:53;;;;;;;7.78;5.53;;;;;;;12.56;58.54;93792.97;6194469;23;20039;-87
2024/02/22 09:49:25;;;;;;;7.05;5.28;;;;;;;12.42;57.76;93769.69;6218770;23;20014;-87
2024/02/22 09:51:51;;;;;;;8.55;5.45;;;;;;;12.36;57.86;93769.81;6244147;23;20004;-86
2024/02/22 09:54:20;;;;;;;8.95;5.15;;;;;;;12.24;57.90;93772.38;6219066;23;20011;-87
2024/02/22 09:56:48;;;;;;;6.90;4.88;;;;;;;12.26;58.22;93765.13;6187805;23;20103;-87
2024/02/22 09:59:14;;;;;;;7.50;5.28;;;;;;;12.31;58.43;93763.44;6188924;23;20066;-86
2024/02/22 10:01:45;;;;;;;8.25;5.38;;;;;;;12.53;58.60;93749.88;6188574;23;20154;-86
2024/02/22 10:04:23;;;;;;;7.53;5.50;;;;;;;12.25;58.52;93732.25;6188540;23;20012;-86
2024/02/22 10:06:58;;;;;;;7.90;5.35;;;;;;;12.46;57.97;93728.31;6165738;23;20043;-86
2024/02/22 10:11:49;;;;;;;7.70;5.68;;;;;;;12.64;58.58;93706.53;6187562;23;20005;-87
2024/02/22 10:14:14;;;;;;;8.65;5.85;;;;;;;12.56;59.03;93692.03;6163836;23;20012;-87
2024/02/22 10:16:46;;;;;;;8.65;5.72;;;;;;;12.37;58.94;93698.38;6188371;23;20045;-86
2024/02/22 10:19:14;;;;;;;6.55;5.35;;;;;;;12.63;59.11;93681.50;6140921;23;20004;-87
2024/02/22 10:21:40;;;;;;;7.68;5.47;;;;;;;12.92;58.56;93677.16;6185041;23;20021;-86
2024/02/22 10:24:06;;;;;;;5.28;4.00;;;;;;;13.23;55.73;93683.78;6188201;23;20019;-86
2024/02/22 10:26:31;;;;;;;7.07;5.32;;;;;;;13.45;55.60;93683.19;6139140;23;20075;-87
2024/02/22 10:31:25;;;;;;;7.55;5.20;;;;;;;13.37;56.98;93686.16;6212428;23;20031;-87
2024/02/22 10:33:57;;;;;;;7.55;5.13;;;;;;;13.06;57.21;93656.78;6188363;23;20008;-86
2024/02/22 10:36:23;;;;;;;8.57;5.30;;;;;;;13.21;56.96;93657.13;6213743;23;20071;-86
2024/02/22 10:49:01;;;;;;;6.43;4.55;;;;;;;13.20;57.32;93644.28;6203790;23;20086;-87
2024/02/22 10:51:29;;;;;;;7.28;5.05;;;;;;;13.20;56.99;93639.84;6188092;23;20023;-86
2024/02/22 10:53:56;;;;;;;6.13;4.75;;;;;;;13.18;57.32;93631.47;6213089;23;19997;-86
2024/02/22 10:56:26;;;;;;;6.30;4.78;;;;;;;13.22;57.42;93640.41;6188370;23;20005;-86
2024/02/22 10:58:55;;;;;;;;;;;;;;;13.06;58.62;93641.13;6188569;23;20011;-86
2024/02/22 11:01:22;;;;;;;6.28;4.30;;;;;;;13.17;57.63;93640.31;6187945;23;19970;-87
2024/02/22 11:03:48;;;;;;;5.38;3.90;;;;;;;13.42;56.25;93620.94;6186456;23;20036;-86
2024/02/22 11:06:14;;;;;;;5.13;4.32;;;;;;;13.13;57.48;93633.19;6163496;23;20015;-87
2024/02/22 11:08:49;;;;;;;7.68;4.80;;;;;;;13.16;56.12;93624.91;6188181;23;20032;-86
2024/02/22 11:16:35;;;;;;;5.53;4.35;;;;;;;12.98;58.83;93613.59;6187025;23;20021;-86
2024/02/22 11:19:27;;;;;;;5.35;4.03;;;;;;;13.03;56.98;93598.03;6217906;23;20093;-86
2024/02/22 11:21:53;;;;;;;5.47;4.38;;;;;;;13.07;57.92;93598.38;6204346;23;20098;-87
2024/02/22 11:24:24;;;;;;;4.90;3.63;;;;;;;13.15;56.09;93578.94;6217540;23;20075;-86
2024/02/22 11:26:50;;;;;;;5.75;4.32;;;;;;;13.21;57.51;93583.22;6217534;23;20019;-86
2024/02/22 11:29:29;;;;;;;6.28;4.32;;;;;;;13.45;56.89;93576.09;6192281;23;20092;-86
2024/02/22 11:32:01;;;;;;;5.95;4.38;;;;;;;13.38;57.49;93578.84;6214460;23;20015;-85
2024/02/22 11:34:27;;;;;;;7.35;4.75;;;;;;;13.37;58.75;93572.03;6192783;23;20091;-86
2024/02/22 11:37:08;;;;;;;10.00;7.43;;;;;;;13.22;60.42;93567.31;6217410;23;20008;-85
2024/02/22 11:39:36;;;;;;;10.98;8.52;;;;;;;13.19;60.96;93564.38;6242034;23;20042;-85
2024/02/22 11:42:01;;;;;;;9.23;7.47;;;;;;;13.19;60.86;93552.09;6193049;23;20004;-86
2024/02/22 11:44:27;;;;;;;13.73;9.15;;;;;;;13.13;60.36;93529.56;6217611;23;20031;-86
2024/02/22 11:46:53;;;;;;;11.73;8.25;;;;;;;12.80;61.41;93522.44;6217731;23;20112;-86
2024/02/22 11:49:20;;;;;;;9.75;7.68;;;;;;;12.74;61.49;93510.31;6217483;23;20012;-87
2024/02/22 11:51:49;;;;;;;8.57;7.05;;;;;;;12.74;62.14;93513.75;6192862;23;20012;-86
2024/02/22 11:54:21;;;;;;;10.35;7.90;;;;;;;13.05;61.36;93504.63;6217937;23;20019;-86
2024/02/22 11:56:47;;;;;;;9.43;7.95;;;;;;;12.75;62.12;93494.44;6217991;23;20141;-86
2024/02/22 11:59:13;;;;;;;10.63;9.27;;;;;;;12.82;61.98;93491.69;6217583;23;20012;-87
2024/02/22 12:01:42;;;;;;;10.50;8.93;;;;;;;12.99;62.01;93491.75;6192818;23;20012;-86
2024/02/22 12:04:11;;;;;;;16.60;8.27;;;;;;;13.20;60.93;93466.78;6217366;23;20087;-87
2024/02/22 12:06:37;;;;;;;12.00;8.55;;;;;;;12.83;62.34;93469.78;6217115;23;20000;-86
2024/02/22 12:11:29;;;;;;;11.43;8.43;;;;;;;12.99;62.05;93456.00;6237944;22;20020;-87
2024/02/22 12:13:56;;;;;;;14.23;8.98;;;;;;;12.91;62.46;93444.13;6217563;23;20023;-87
2024/02/22 12:16:22;;;;;;;13.15;8.88;;;;;;;13.03;62.36;93430.22;6217216;23;20004;-86
2024/02/22 12:18:50;;;;;;;9.40;7.45;;;;;;;13.02;62.19;93410.34;6217793;23;20032;-87
2024/02/22 12:21:15;;;;;;;11.13;8.88;;;;;;;13.09;62.69;93411.00;6202097;23;20170;-87
2024/02/22 12:23:41;;;;;;;15.75;9.32;;;;;;;13.15;62.45;93391.75;6191809;23;20087;-86
2024/02/22 12:26:06;;;;;;;12.95;9.65;;;;;;;13.05;62.94;93386.41;6217800;23;20008;-87
2024/02/22 12:30:58;;;;;;;10.13;7.88;;;;;;;12.97;62.54;93358.88;6242415;22;20083;-86
2024/02/22 12:33:24;;;;;;;9.57;7.43;;;;;;;12.82;63.44;93343.78;6194171;23;20004;-86
2024/02/22 12:35:50;;;;;;;8.68;7.10;;;;;;;13.41;61.03;93322.47;6219494;23;20004;-86
2024/02/22 12:38:15;;;;;;;8.95;7.38;;;;;;;13.04;61.69;93320.38;6193692;23;20107;-86
2024/02/22 12:40:44;;;;;;;9.60;7.03;;;;;;;13.26;61.92;93320.41;6193782;23;20008;-87
2024/02/22 12:43:28;;;;;;;9.65;7.68;;;;;;;12.99;62.13;93307.25;6195455;23;20058;-87
2024/02/22 12:45:53;;;;;;;6.00;5.03;;;;;;;13.33;59.94;93280.28;6219516;23;20040;-86
2024/02/22 12:48:19;;;;;;;6.68;4.10;;;;;;;13.45;58.62;93263.50;6193992;23;20004;-87
2024/02/22 12:50:46;;;;;;;6.13;4.55;;;;;;;13.39;58.21;93254.03;6219471;23;20026;-87
2024/02/22 12:53:11;;;;;;;5.63;4.20;;;;;;;13.58;57.53;93248.50;6194168;23;20001;-87
2024/02/22 12:55:40;;;;;;;4.97;3.80;;;;;;;13.58;58.13;93244.06;6218980;23;20011;-86
2024/02/22 13:00:35;;;;;;;5.25;3.95;;;;;;;13.45;57.44;93229.53;6210677;23;20016;-87
2024/02/22 13:03:01;;;;;;;5.00;4.13;;;;;;;13.84;57.09;93219.00;6213951;23;20055;-87
2024/02/22 13:05:30;;;;;;;4.38;3.80;;;;;;;13.87;55.75;93220.31;6164202;23;20285;-87
2024/02/22 13:07:57;;;;;;;5.10;3.92;;;;;;;14.11;56.68;93225.22;6165390;23;20038;-86
2024/02/22 13:10:22;;;;;;;5.57;4.00;;;;;;;14.07;57.42;93217.91;6213767;23;20016;-87
2024/02/22 13:12:48;;;;;;;6.85;4.70;;;;;;;14.01;58.00;93229.34;6213898;23;20004;-87
2024/02/22 13:17:40;;;;;;;35.20;9.90;;;;;;;13.63;60.69;93225.84;6227173;23;20020;-87
2024/02/22 13:20:06;;;;;;;54.90;10.90;;;;;;;13.73;60.38;93250.47;6169346;23;20012;-87
2024/02/22 13:22:35;;;;;;;27.20;10.20;;;;;;;13.19;62.01;93251.91;6218650;23;20003;-87
2024/02/22 13:25:00;;;;;;;76.40;13.25;;;;;;;13.32;61.54;93261.25;6194054;23;20008;-86
2024/02/22 13:27:26;;;;;;;12.50;10.38;;;;;;;12.94;62.28;93243.75;6218750;23;20004;-87
2024/02/22 13:29:55;;;;;;;12.63;9.50;;;;;;;13.04;61.73;93265.56;6218520;23;20022;-85
2024/02/22 13:32:20;;;;;;;10.55;9.00;;;;;;;13.06;61.75;93270.53;6193537;23;20008;-86
2024/02/22 13:34:45;;;;;;;7.95;6.75;;;;;;;13.29;60.64;93277.38;6193549;23;20016;-87
2024/02/22 13:37:11;;;;;;;8.57;6.80;;;;;;;13.14;61.48;93288.41;6193398;23;20004;-87
2024/02/22 13:39:40;;;;;;;6.82;6.03;;;;;;;13.15;61.51;93287.34;6218504;23;20012;-87
2024/02/22 13:42:06;;;;;;;8.20;6.78;;;;;;;12.98;62.37;93297.03;6193298;23;20043;-86
2024/02/22 13:47:07;;;;;;;9.15;7.05;;;;;;;13.06;61.79;93294.00;6242528;22;20038;-86
2024/02/22 13:49:32;;;;;;;8.73;6.40;;;;;;;12.79;62.05;93292.06;6193875;23;20043;-86
2024/02/22 13:51:59;;;;;;;9.73;7.38;;;;;;;12.45;62.97;93292.09;6218538;23;20031;-86
2024/02/22 13:56:50;;;;;;;10.95;7.72;;;;;;;11.86;64.78;93301.94;6243789;23;20098;-86
2024/02/22 13:59:16;;;;;;;14.20;9.65;;;;;;;11.76;65.67;93312.19;6218951;23;20027;-85
2024/02/22 14:01:43;;;;;;;12.23;9.02;;;;;;;11.72;65.45;93291.00;6218773;23;20001;-87
2024/02/22 14:04:09;;;;;;;10.60;7.95;;;;;;;11.85;64.23;93290.75;6193706;23;20019;-86
2024/02/22 14:06:35;;;;;;;14.00;10.00;;;;;;;11.79;64.80;93290.91;6243845;23;20004;-86
2024/02/22 14:09:01;;;;;;;10.13;8.27;;;;;;;11.77;64.49;93283.31;6218522;23;20002;-85
2024/02/22 14:11:30;;;;;;;16.73;11.35;;;;;;;11.95;64.02;93295.38;6240356;23;20036;-86
2024/02/22 14:13:55;;;;;;;12.05;8.77;;;;;;;11.84;64.12;93277.94;6169449;23;20090;-86
2024/02/22 14:16:21;;;;;;;11.60;8.65;;;;;;;12.04;63.79;93296.59;6218652;23;20031;-86
2024/02/22 14:18:46;;;;;;;12.60;9.30;;;;;;;11.91;64.25;93291.66;6218656;23;20048;-86
2024/02/22 14:26:12;;;;;;;9.82;7.35;;;;;;;11.80;64.46;93256.00;6214241;23;20032;-86
2024/02/22 14:28:39;;;;;;;8.90;7.70;;;;;;;11.94;64.34;93246.91;6163852;23;20048;-86
2024/02/22 14:36:05;;;;;;;9.95;7.95;;;;;;;12.03;64.05;93227.28;6213668;23;20025;-86
2024/02/22 14:38:33;;;;;;;9.75;7.90;;;;;;;12.09;63.73;93234.16;6188438;23;20017;-86
2024/02/22 14:40:58;;;;;;;9.07;7.43;;;;;;;11.92;63.96;93213.28;6164951;23;20015;-86
2024/02/22 14:43:24;;;;;;;8.65;6.82;;;;;;;12.07;63.58;93210.13;6187805;23;20012;-86
2024/02/22 14:45:50;;;;;;;8.13;7.25;;;;;;;12.22;63.37;93224.44;6139416;23;20008;-86
2024/02/22 14:48:17;;;;;;;7.63;6.82;;;;;;;12.27;63.23;93208.88;6164035;23;20099;-86
2024/02/22 14:53:11;;;;;;;8.98;7.10;;;;;;;12.43;62.83;93205.50;6189371;23;20013;-87
2024/02/22 14:55:37;;;;;;;8.27;6.88;;;;;;;12.37;62.79;93200.44;6218997;23;20012;-87
2024/02/22 14:58:04;;;;;;;6.93;6.22;;;;;;;12.33;63.04;93192.28;6218906;23;20016;-86
2024/02/22 15:02:59;;;;;;;9.05;7.10;;;;;;;12.28;63.31;93189.59;6241427;22;20016;-87
2024/02/22 15:05:24;;;;;;;8.43;6.78;;;;;;;12.25;63.65;93190.88;6168192;23;20034;-86
2024/02/22 15:07:52;;;;;;;10.35;8.52;;;;;;;12.22;63.98;93178.31;6218532;23;20012;-86
2024/02/22 15:10:18;;;;;;;15.93;10.20;;;;;;;12.44;63.63;93185.41;6218274;23;20028;-86
2024/02/22 15:12:43;;;;;;;11.98;9.02;;;;;;;12.49;63.21;93188.88;6218221;23;20002;-86
2024/02/22 15:15:09;;;;;;;11.65;9.10;;;;;;;12.48;63.35;93189.13;6192689;23;20059;-87
2024/02/22 15:17:36;;;;;;;17.17;10.75;;;;;;;12.66;62.39;93181.03;6193070;23;20023;-87
2024/02/22 15:20:01;;;;;;;13.68;10.30;;;;;;;12.33;63.05;93158.41;6218335;23;20097;-86
2024/02/22 15:22:27;;;;;;;15.23;10.48;;;;;;;12.12;64.10;93144.28;6168061;23;20000;-86
2024/02/22 15:24:52;;;;;;;13.90;10.35;;;;;;;11.96;64.27;93132.84;6168043;23;20016;-86
2024/02/22 15:27:18;;;;;;;15.07;11.32;;;;;;;11.92;63.79;93121.31;6218207;23;20004;-86
2024/02/22 15:29:46;;;;;;;16.42;11.00;;;;;;;11.69;65.06;93115.19;6168294;23;20085;-86
2024/02/22 15:32:12;;;;;;;18.95;12.63;;;;;;;11.72;64.98;93109.50;6218381;23;20004;-85
2024/02/22 15:34:38;;;;;;;19.30;13.32;;;;;;;11.54;65.64;93096.72;6168481;23;20008;-86
2024/02/22 15:37:04;;;;;;;23.30;14.43;;;;;;;11.34;66.09;93087.53;6168488;23;20091;-86
2024/02/22 15:39:33;;;;;;;20.00;13.75;;;;;;;11.62;65.53;93085.91;6193498;23;20019;-87
2024/02/22 15:42:02;;;;;;;18.30;12.90;;;;;;;11.71;65.38;93092.31;6193257;23;20008;-86
2024/02/22 15:44:28;;;;;;;19.60;13.63;;;;;;;11.84;64.97;93088.63;6193368;23;20043;-86
2024/02/22 15:49:18;;;;;;;17.73;12.80;;;;;;;12.21;63.87;93082.13;6243596;22;20034;-86